Banbury, United Kingdom
Current Conditions -  °F | °C
As of 8:20 AM on Friday 24 Oct 2014 (Local Time) from EGTK Reporting Station
Rain Showers Rain Showers  
Wind Chill: 55°   Ceiling: 900
Heat Index: 55°   Visibility: 6mi
Dew Point: 55°   Wind: 7mph
Humidity: 100%   Direction: 210°SSW
Pressure: 29.94"   Gusts: NA
Location:  52.06°N, 1.34°W
Report Text: EGTK 240720Z 21006KT 9999 VCSH BKN009 OVC010 13/13 Q1014
Loading
Personal Weather Stations






























Interactive Weather Map New forecast layout! Learn more

10-Day Weather Forecast

Advertisements
Track Severe Weather on mobile